Time,TemperatureF,DewpointF,PressureIn,WindDirection,WindDirectionDegrees,WindSpeedMPH,WindSpeedGustMPH,Humidity,HourlyPrecipIn,Conditions,Clouds,dailyrainin,SoftwareType,DateUTC
2013-01-06 00:14:00,34.1,28.0,30.24,ENE,76,0.0,1.0,77,0.00,,,0.00,weatherlink.com 1.10,2013-01-06 05:14:00,
2013-01-06 00:29:00,34.4,28.0,30.23,NNE,13,2.0,2.0,76,0.00,,,0.00,weatherlink.com 1.10,2013-01-06 05:29:00,
2013-01-06 00:44:00,34.7,28.0,30.23,SE,132,0.0,2.0,77,0.00,,,0.00,weatherlink.com 1.10,2013-01-06 05:44:00,
2013-01-06 00:59:00,34.8,28.0,30.22,SW,225,0.0,2.0,77,0.00,,,0.00,weatherlink.com 1.10,2013-01-06 05:59:00,
2013-01-06 01:14:00,34.9,28.0,30.23,NNW,345,1.0,2.0,76,0.00,,,0.00,weatherlink.com 1.10,2013-01-06 06:14:00,
2013-01-06 01:30:00,35.1,29.0,30.24,WNW,295,1.0,4.0,77,0.00,,,0.00,weatherlink.com 1.10,2013-01-06 06:30:00,
2013-01-06 01:45:00,35.4,30.0,30.24,ENE,72,1.0,4.0,79,0.00,,,0.00,weatherlink.com 1.10,2013-01-06 06:45:00,
2013-01-06 02:00:00,35.5,31.0,30.23,ESE,107,1.0,8.0,82,0.00,,,0.00,weatherlink.com 1.10,2013-01-06 07:00:00,
2013-01-06 02:15:00,34.9,31.0,30.23,WNW,287,6.0,8.0,85,0.00,,,0.00,weatherlink.com 1.10,2013-01-06 07:15:00,
2013-01-06 02:30:00,34.5,31.0,30.22,SSE,166,1.0,5.0,87,0.00,,,0.00,weatherlink.com 1.10,2013-01-06 07:30:00,
2013-01-06 02:45:00,34.0,31.0,30.20,WSW,257,3.0,5.0,88,0.00,,,0.00,weatherlink.com 1.10,2013-01-06 07:45:00,
2013-01-06 03:00:00,34.0,31.0,30.20,SW,215,1.0,5.0,89,0.00,,,0.00,weatherlink.com 1.10,2013-01-06 08:00:00,
2013-01-06 03:15:00,34.0,31.0,30.18,NE,49,1.0,5.0,89,0.00,,,0.00,weatherlink.com 1.10,2013-01-06 08:15:00,
2013-01-06 03:30:00,33.9,31.0,30.17,West,259,0.0,3.0,89,0.00,,,0.00,weatherlink.com 1.10,2013-01-06 08:30:00,
2013-01-06 03:45:00,34.1,31.0,30.17,West,276,2.0,6.0,89,0.00,,,0.00,weatherlink.com 1.10,2013-01-06 08:45:00,
2013-01-06 04:00:00,33.9,31.0,30.17,NE,56,0.0,3.0,89,0.00,,,0.00,weatherlink.com 1.10,2013-01-06 09:00:00,
2013-01-06 04:15:00,33.5,31.0,30.16,SSW,209,2.0,4.0,89,0.00,,,0.00,weatherlink.com 1.10,2013-01-06 09:15:00,
2013-01-06 04:30:00,32.6,30.0,30.17,North,349,1.0,2.0,89,0.00,,,0.00,weatherlink.com 1.10,2013-01-06 09:30:00,
2013-01-06 04:45:00,31.5,29.0,30.17,North,352,0.0,1.0,90,0.00,,,0.00,weatherlink.com 1.10,2013-01-06 09:45:00,
2013-01-06 05:00:00,30.8,28.0,30.17,North,352,0.0,0.0,90,0.00,,,0.00,weatherlink.com 1.10,2013-01-06 10:00:00,
2013-01-06 05:15:00,29.8,27.0,30.17,North,352,0.0,0.0,90,0.00,,,0.00,weatherlink.com 1.10,2013-01-06 10:15:00,
2013-01-06 05:30:00,29.4,27.0,30.17,North,352,0.0,0.0,91,0.00,,,0.00,weatherlink.com 1.10,2013-01-06 10:30:00,
2013-01-06 05:45:00,29.0,27.0,30.16,North,351,0.0,0.0,91,0.00,,,0.00,weatherlink.com 1.10,2013-01-06 10:45:00,
2013-01-06 06:00:00,28.5,26.0,30.17,North,351,0.0,0.0,91,0.00,,,0.00,weatherlink.com 1.10,2013-01-06 11:00:00,
2013-01-06 06:15:00,27.9,26.0,30.17,North,352,0.0,0.0,91,0.00,,,0.00,weatherlink.com 1.10,2013-01-06 11:15:00,
2013-01-06 06:30:00,27.3,25.0,30.17,North,351,0.0,1.0,91,0.00,,,0.00,weatherlink.com 1.10,2013-01-06 11:30:00,
2013-01-06 06:45:00,27.0,25.0,30.17,North,352,0.0,1.0,92,0.00,,,0.00,weatherlink.com 1.10,2013-01-06 11:45:00,
2013-01-06 07:00:00,26.6,25.0,30.18,North,352,0.0,1.0,92,0.00,,,0.00,weatherlink.com 1.10,2013-01-06 12:00:00,
2013-01-06 07:15:00,26.3,24.0,30.18,North,352,0.0,0.0,92,0.00,,,0.00,weatherlink.com 1.10,2013-01-06 12:15:00,
2013-01-06 07:30:00,26.4,24.0,30.18,North,10,0.0,0.0,92,0.00,,,0.00,weatherlink.com 1.10,2013-01-06 12:30:00,
2013-01-06 07:45:00,26.9,25.0,30.18,NE,40,0.0,0.0,92,0.00,,,0.00,weatherlink.com 1.10,2013-01-06 12:45:00,
2013-01-06 08:00:00,27.4,25.0,30.17,NE,49,0.0,0.0,92,0.00,,,0.00,weatherlink.com 1.10,2013-01-06 13:00:00,
2013-01-06 08:15:00,28.0,26.0,30.17,NE,53,0.0,0.0,92,0.00,,,0.00,weatherlink.com 1.10,2013-01-06 13:15:00,
2013-01-06 08:30:00,28.9,27.0,30.17,NE,53,0.0,0.0,92,0.00,,,0.00,weatherlink.com 1.10,2013-01-06 13:30:00,
2013-01-06 08:45:00,29.6,28.0,30.17,NE,54,0.0,0.0,92,0.00,,,0.00,weatherlink.com 1.10,2013-01-06 13:45:00,
2013-01-06 09:00:00,30.6,29.0,30.17,NE,54,0.0,0.0,92,0.00,,,0.00,weatherlink.com 1.10,2013-01-06 14:00:00,
2013-01-06 09:15:00,32.0,30.0,30.16,NE,53,0.0,0.0,92,0.00,,,0.00,weatherlink.com 1.10,2013-01-06 14:15:00,
2013-01-06 09:30:00,32.9,31.0,30.17,NE,54,0.0,0.0,92,0.00,,,0.00,weatherlink.com 1.10,2013-01-06 14:30:00,
2013-01-06 09:45:00,33.7,31.0,30.17,NE,54,0.0,0.0,91,0.00,,,0.00,weatherlink.com 1.10,2013-01-06 14:45:00,
2013-01-06 10:00:00,35.5,33.0,30.16,WSW,238,1.0,1.0,91,0.00,,,0.00,weatherlink.com 1.10,2013-01-06 15:00:00,
2013-01-06 10:15:00,37.9,34.0,30.16,SW,231,2.0,2.0,85,0.00,,,0.00,weatherlink.com 1.10,2013-01-06 15:15:00,
2013-01-06 10:30:00,39.6,33.0,30.15,West,269,3.0,4.0,78,0.00,,,0.00,weatherlink.com 1.10,2013-01-06 15:30:00,
2013-01-06 10:46:00,42.9,33.0,30.15,West,277,1.0,5.0,67,0.00,,,0.00,weatherlink.com 1.10,2013-01-06 15:46:00,
2013-01-06 11:01:00,43.9,34.0,30.15,SW,224,3.0,7.0,67,0.00,,,0.00,weatherlink.com 1.10,2013-01-06 16:01:00,
2013-01-06 11:16:00,44.5,32.0,30.13,West,276,2.0,5.0,63,0.00,,,0.00,weatherlink.com 1.10,2013-01-06 16:16:00,
2013-01-06 11:31:00,44.7,32.0,30.12,West,274,3.0,7.0,61,0.00,,,0.00,weatherlink.com 1.10,2013-01-06 16:31:00,
2013-01-06 11:46:00,45.7,32.0,30.12,SSE,163,3.0,7.0,60,0.00,,,0.00,weatherlink.com 1.10,2013-01-06 16:46:00,
2013-01-06 12:01:00,46.3,32.0,30.11,WSW,253,2.0,4.0,57,0.00,,,0.00,weatherlink.com 1.10,2013-01-06 17:01:00,
2013-01-06 12:16:00,46.8,32.0,30.11,SW,215,3.0,6.0,57,0.00,,,0.00,weatherlink.com 1.10,2013-01-06 17:16:00,
2013-01-06 12:31:00,47.9,32.0,30.09,WNW,289,3.0,4.0,54,0.00,,,0.00,weatherlink.com 1.10,2013-01-06 17:31:00,
2013-01-06 12:46:00,48.8,32.0,30.08,SW,215,2.0,6.0,52,0.00,,,0.00,weatherlink.com 1.10,2013-01-06 17:46:00,
2013-01-06 13:01:00,48.8,31.0,30.07,SW,225,2.0,6.0,51,0.00,,,0.00,weatherlink.com 1.10,2013-01-06 18:01:00,
2013-01-06 13:16:00,47.5,31.0,30.07,WSW,257,4.0,5.0,54,0.00,,,0.00,weatherlink.com 1.10,2013-01-06 18:16:00,
2013-01-06 13:31:00,47.3,30.0,30.07,SSW,212,2.0,8.0,52,0.00,,,0.00,weatherlink.com 1.10,2013-01-06 18:31:00,
2013-01-06 13:46:00,47.6,32.0,30.06,SSW,205,2.0,7.0,56,0.00,,,0.00,weatherlink.com 1.10,2013-01-06 18:46:00,
2013-01-06 14:01:00,48.5,31.0,30.06,WSW,248,5.0,7.0,51,0.00,,,0.00,weatherlink.com 1.10,2013-01-06 19:01:00,
2013-01-06 14:16:00,47.2,31.0,30.06,West,274,2.0,4.0,53,0.00,,,0.00,weatherlink.com 1.10,2013-01-06 19:16:00,
2013-01-06 14:31:00,47.5,31.0,30.06,WSW,256,4.0,9.0,53,0.00,,,0.00,weatherlink.com 1.10,2013-01-06 19:31:00,
2013-01-06 14:46:00,46.9,30.0,30.05,West,281,1.0,5.0,52,0.00,,,0.00,weatherlink.com 1.10,2013-01-06 19:46:00,
2013-01-06 15:16:00,46.9,31.0,30.05,West,273,0.0,4.0,54,0.00,,,0.00,weatherlink.com 1.10,2013-01-06 20:16:00,
2013-01-06 15:31:00,46.1,31.0,30.05,West,273,1.0,3.0,55,0.00,,,0.00,weatherlink.com 1.10,2013-01-06 20:31:00,
2013-01-06 16:01:00,46.7,31.0,30.05,WSW,248,1.0,4.0,55,0.00,,,0.00,weatherlink.com 1.10,2013-01-06 21:01:00,
2013-01-06 16:16:00,44.3,30.0,30.05,NW,323,0.0,4.0,57,0.00,,,0.00,weatherlink.com 1.10,2013-01-06 21:16:00,
2013-01-06 16:31:00,43.6,30.0,30.06,WNW,285,1.0,3.0,58,0.00,,,0.00,weatherlink.com 1.10,2013-01-06 21:31:00,
2013-01-06 16:46:00,42.4,30.0,30.06,WNW,302,0.0,1.0,61,0.00,,,0.00,weatherlink.com 1.10,2013-01-06 21:46:00,
2013-01-06 17:01:00,42.4,30.0,30.06,WNW,302,0.0,1.0,61,0.00,,,0.00,weatherlink.com 1.10,2013-01-06 22:01:00,
2013-01-06 17:16:00,42.4,29.0,30.07,WNW,302,0.0,1.0,60,0.00,,,0.00,weatherlink.com 1.10,2013-01-06 22:16:00,
2013-01-06 17:31:00,42.6,29.0,30.07,NW,304,0.0,1.0,60,0.00,,,0.00,weatherlink.com 1.10,2013-01-06 22:31:00,
2013-01-06 17:46:00,42.2,30.0,30.08,WNW,301,0.0,1.0,63,0.00,,,0.00,weatherlink.com 1.10,2013-01-06 22:46:00,
2013-01-06 18:01:00,42.1,30.0,30.08,WSW,242,0.0,1.0,63,0.00,,,0.00,weatherlink.com 1.10,2013-01-06 23:01:00,
2013-01-06 18:16:00,41.8,30.0,30.08,WSW,242,0.0,0.0,63,0.00,,,0.00,weatherlink.com 1.10,2013-01-06 23:16:00,
2013-01-06 18:31:00,41.8,29.0,30.08,WSW,242,0.0,0.0,62,0.00,,,0.00,weatherlink.com 1.10,2013-01-06 23:31:00,
2013-01-06 18:46:00,41.1,32.0,30.09,ENE,68,0.0,0.0,69,0.00,,,0.00,weatherlink.com 1.10,2013-01-06 23:46:00,
2013-01-06 19:01:00,40.6,31.0,30.09,NNE,33,0.0,1.0,69,0.00,,,0.00,weatherlink.com 1.10,2013-01-07 00:01:00,
2013-01-06 19:16:00,41.2,31.0,30.09,West,266,0.0,3.0,67,0.00,,,0.00,weatherlink.com 1.10,2013-01-07 00:16:00,
2013-01-06 19:31:00,41.8,30.0,30.10,WSW,252,2.0,2.0,64,0.00,,,0.00,weatherlink.com 1.10,2013-01-07 00:31:00,
2013-01-06 19:47:00,42.3,30.0,30.09,WNW,295,0.0,3.0,62,0.00,,,0.00,weatherlink.com 1.10,2013-01-07 00:47:00,
2013-01-06 20:02:00,42.3,30.0,30.10,WNW,283,1.0,4.0,62,0.00,,,0.00,weatherlink.com 1.10,2013-01-07 01:02:00,
2013-01-06 20:17:00,41.7,31.0,30.10,WNW,289,1.0,3.0,65,0.00,,,0.00,weatherlink.com 1.10,2013-01-07 01:17:00,
2013-01-06 20:31:00,41.9,30.0,30.10,West,259,0.0,4.0,64,0.00,,,0.00,weatherlink.com 1.10,2013-01-07 01:31:00,
2013-01-06 20:46:00,41.7,30.0,30.10,WNW,284,0.0,3.0,64,0.00,,,0.00,weatherlink.com 1.10,2013-01-07 01:46:00,
2013-01-06 21:01:00,41.2,31.0,30.10,West,273,1.0,2.0,66,0.00,,,0.00,weatherlink.com 1.10,2013-01-07 02:01:00,
2013-01-06 21:16:00,40.8,31.0,30.10,WNW,290,2.0,3.0,67,0.00,,,0.00,weatherlink.com 1.10,2013-01-07 02:16:00,
2013-01-06 21:31:00,40.7,31.0,30.11,WNW,284,1.0,1.0,68,0.00,,,0.00,weatherlink.com 1.10,2013-01-07 02:31:00,
2013-01-06 21:46:00,40.6,31.0,30.11,West,280,1.0,2.0,68,0.00,,,0.00,weatherlink.com 1.10,2013-01-07 02:46:00,
2013-01-06 22:01:00,40.7,31.0,30.11,West,271,1.0,2.0,68,0.00,,,0.00,weatherlink.com 1.10,2013-01-07 03:01:00,
2013-01-06 22:16:00,40.6,31.0,30.12,WNW,282,3.0,3.0,68,0.00,,,0.00,weatherlink.com 1.10,2013-01-07 03:16:00,
2013-01-06 22:31:00,40.6,31.0,30.12,West,280,1.0,2.0,69,0.00,,,0.00,weatherlink.com 1.10,2013-01-07 03:31:00,
2013-01-06 22:46:00,40.5,31.0,30.13,West,280,0.0,1.0,68,0.00,,,0.00,weatherlink.com 1.10,2013-01-07 03:46:00,
2013-01-06 23:01:00,40.4,31.0,30.14,West,280,0.0,1.0,68,0.00,,,0.00,weatherlink.com 1.10,2013-01-07 04:01:00,
2013-01-06 23:16:00,40.0,31.0,30.14,West,280,0.0,1.0,70,0.00,,,0.00,weatherlink.com 1.10,2013-01-07 04:16:00,
2013-01-06 23:31:00,39.9,31.0,30.14,West,280,1.0,1.0,71,0.00,,,0.00,weatherlink.com 1.10,2013-01-07 04:31:00,
2013-01-06 23:46:00,39.5,31.0,30.15,West,280,0.0,0.0,72,0.00,,,0.00,weatherlink.com 1.10,2013-01-07 04:46:00,